Time,TemperatureF,DewpointF,PressureIn,WindDirection,WindDirectionDegrees,WindSpeedMPH,WindSpeedGustMPH,Humidity,HourlyPrecipIn,Conditions,Clouds,dailyrainin,SoftwareType,DateUTC
2013-04-19 00:00:00,55.5,37.1,30.22,NW,319,0.0,0.0,50,0.00,,,0.00,Wunderground v.1.15,2013-04-19 07:00:00,
2013-04-19 00:05:00,55.3,37.5,30.22,NW,319,0.0,0.0,51,0.00,,,0.00,Wunderground v.1.15,2013-04-19 07:05:00,
2013-04-19 00:15:00,54.9,37.6,30.22,NW,319,0.0,0.0,52,0.00,,,0.00,Wunderground v.1.15,2013-04-19 07:15:00,
2013-04-19 00:20:00,54.9,37.6,30.22,NW,319,0.0,0.0,52,0.00,,,0.00,Wunderground v.1.15,2013-04-19 07:20:00,
2013-04-19 00:25:00,54.9,37.6,30.22,NW,319,0.0,0.0,52,0.00,,,0.00,Wunderground v.1.15,2013-04-19 07:25:00,
2013-04-19 00:30:00,55.0,37.7,30.22,NW,319,0.0,0.0,52,0.00,,,0.00,Wunderground v.1.15,2013-04-19 07:30:00,
2013-04-19 00:40:00,55.2,37.9,30.22,NW,319,0.0,0.0,52,0.00,,,0.00,Wunderground v.1.15,2013-04-19 07:40:00,
2013-04-19 00:45:00,55.4,38.1,30.22,NW,319,0.0,0.0,52,0.00,,,0.00,Wunderground v.1.15,2013-04-19 07:45:00,
2013-04-19 00:50:00,55.2,37.4,30.22,NW,319,0.0,0.0,51,0.00,,,0.00,Wunderground v.1.15,2013-04-19 07:50:00,
2013-04-19 00:55:00,55.2,37.4,30.22,NW,319,0.0,0.0,51,0.00,,,0.00,Wunderground v.1.15,2013-04-19 07:55:00,
2013-04-19 01:05:00,55.1,37.8,30.22,NW,319,0.0,0.0,52,0.00,,,0.00,Wunderground v.1.15,2013-04-19 08:05:00,
2013-04-19 01:10:00,55.0,37.7,30.22,NW,319,0.0,0.0,52,0.00,,,0.00,Wunderground v.1.15,2013-04-19 08:10:00,
2013-04-19 01:15:00,54.9,37.6,30.22,NW,319,0.0,0.0,52,0.00,,,0.00,Wunderground v.1.15,2013-04-19 08:15:00,
2013-04-19 01:25:00,55.1,37.3,30.22,NW,319,0.0,0.0,51,0.00,,,0.00,Wunderground v.1.15,2013-04-19 08:25:00,
2013-04-19 01:30:00,55.1,37.3,30.22,NW,319,0.0,0.0,51,0.00,,,0.00,Wunderground v.1.15,2013-04-19 08:30:00,
2013-04-19 01:35:00,55.2,37.4,30.22,NW,319,0.0,0.0,51,0.00,,,0.00,Wunderground v.1.15,2013-04-19 08:35:00,
2013-04-19 01:40:00,55.2,37.9,30.21,NW,319,0.0,0.0,52,0.00,,,0.00,Wunderground v.1.15,2013-04-19 08:40:00,
2013-04-19 01:45:00,55.1,37.8,30.21,NW,319,0.0,0.0,52,0.00,,,0.00,Wunderground v.1.15,2013-04-19 08:45:00,
2013-04-19 01:55:00,54.9,37.6,30.21,NW,319,0.0,0.0,52,0.00,,,0.00,Wunderground v.1.15,2013-04-19 08:55:00,
2013-04-19 02:00:00,54.8,37.5,30.21,NW,319,0.0,0.0,52,0.00,,,0.00,Wunderground v.1.15,2013-04-19 09:00:00,
2013-04-19 02:10:00,54.5,37.2,30.21,NW,319,0.0,0.0,52,0.00,,,0.00,Wunderground v.1.15,2013-04-19 09:10:00,
2013-04-19 02:15:00,54.5,36.2,30.21,NW,319,0.0,0.0,50,0.00,,,0.00,Wunderground v.1.15,2013-04-19 09:15:00,
2013-04-19 02:20:00,55.0,36.7,30.21,NW,319,0.0,0.0,50,0.00,,,0.00,Wunderground v.1.15,2013-04-19 09:20:00,
2013-04-19 02:25:00,55.2,36.4,30.21,NW,319,0.0,0.0,49,0.00,,,0.00,Wunderground v.1.15,2013-04-19 09:25:00,
2013-04-19 02:30:00,55.3,36.5,30.21,NW,319,0.0,0.0,49,0.00,,,0.00,Wunderground v.1.15,2013-04-19 09:30:00,
2013-04-19 02:40:00,54.8,36.5,30.21,NW,319,0.0,0.0,50,0.00,,,0.00,Wunderground v.1.15,2013-04-19 09:40:00,
2013-04-19 02:45:00,54.8,36.5,30.21,NW,319,0.0,0.0,50,0.00,,,0.00,Wunderground v.1.15,2013-04-19 09:45:00,
2013-04-19 02:50:00,54.9,36.6,30.21,NW,319,0.0,0.0,50,0.00,,,0.00,Wunderground v.1.15,2013-04-19 09:50:00,
2013-04-19 02:55:00,54.7,36.9,30.21,NW,319,0.0,0.0,51,0.00,,,0.00,Wunderground v.1.15,2013-04-19 09:55:00,
2013-04-19 03:05:00,54.5,37.7,30.21,NW,319,0.0,0.0,53,0.00,,,0.00,Wunderground v.1.15,2013-04-19 10:05:00,
2013-04-19 03:10:00,54.1,37.3,30.21,NW,319,0.0,0.0,53,0.00,,,0.00,Wunderground v.1.15,2013-04-19 10:10:00,
2013-04-19 03:15:00,53.9,37.1,30.21,NW,319,0.0,0.0,53,0.00,,,0.00,Wunderground v.1.15,2013-04-19 10:15:00,
2013-04-19 03:20:00,53.7,37.4,30.21,NW,319,0.0,0.0,54,0.00,,,0.00,Wunderground v.1.15,2013-04-19 10:20:00,
2013-04-19 03:25:00,53.6,37.3,30.21,NW,319,0.0,0.0,54,0.00,,,0.00,Wunderground v.1.15,2013-04-19 10:25:00,
2013-04-19 03:35:00,53.5,37.3,30.21,NW,319,0.0,0.0,54,0.00,,,0.00,Wunderground v.1.15,2013-04-19 10:35:00,
2013-04-19 03:40:00,53.6,37.3,30.20,NW,319,0.0,0.0,54,0.00,,,0.00,Wunderground v.1.15,2013-04-19 10:40:00,
2013-04-19 03:45:00,53.6,37.3,30.20,NW,319,0.0,0.0,54,0.00,,,0.00,Wunderground v.1.15,2013-04-19 10:45:00,
2013-04-19 03:50:00,53.4,37.6,30.21,NW,319,0.0,0.0,55,0.00,,,0.00,Wunderground v.1.15,2013-04-19 10:50:00,
2013-04-19 03:55:00,53.2,37.4,30.21,NW,319,0.0,0.0,55,0.00,,,0.00,Wunderground v.1.15,2013-04-19 10:55:00,
2013-04-19 04:00:00,53.1,36.9,30.21,NW,319,0.0,0.0,54,0.00,,,0.00,Wunderground v.1.15,2013-04-19 11:00:00,
2013-04-19 04:10:00,53.4,37.6,30.21,NW,319,0.0,0.0,55,0.00,,,0.00,Wunderground v.1.15,2013-04-19 11:10:00,
2013-04-19 04:15:00,53.3,38.0,30.21,NW,319,0.0,0.0,56,0.00,,,0.00,Wunderground v.1.15,2013-04-19 11:15:00,
2013-04-19 04:20:00,53.2,37.9,30.21,NW,319,0.0,0.0,56,0.00,,,0.00,Wunderground v.1.15,2013-04-19 11:20:00,
2013-04-19 04:30:00,53.1,37.8,30.21,NW,319,0.0,0.0,56,0.00,,,0.00,Wunderground v.1.15,2013-04-19 11:30:00,
2013-04-19 04:35:00,53.0,37.7,30.21,NW,319,0.0,0.0,56,0.00,,,0.00,Wunderground v.1.15,2013-04-19 11:35:00,
2013-04-19 04:40:00,53.0,37.7,30.21,NW,319,0.0,0.0,56,0.00,,,0.00,Wunderground v.1.15,2013-04-19 11:40:00,
2013-04-19 04:45:00,53.0,38.2,30.21,NW,319,0.0,0.0,57,0.00,,,0.00,Wunderground v.1.15,2013-04-19 11:45:00,
2013-04-19 04:55:00,53.0,38.6,30.22,NW,319,0.0,0.0,58,0.00,,,0.00,Wunderground v.1.15,2013-04-19 11:55:00,
2013-04-19 05:00:00,53.0,38.6,30.22,NW,319,0.0,0.0,58,0.00,,,0.00,Wunderground v.1.15,2013-04-19 12:00:00,
2013-04-19 05:05:00,53.0,39.0,30.22,NW,319,0.0,0.0,59,0.00,,,0.00,Wunderground v.1.15,2013-04-19 12:05:00,
2013-04-19 05:10:00,52.8,38.9,30.22,NW,319,0.0,0.0,59,0.00,,,0.00,Wunderground v.1.15,2013-04-19 12:10:00,
2013-04-19 05:15:00,52.7,38.3,30.22,NW,319,0.0,0.0,58,0.00,,,0.00,Wunderground v.1.15,2013-04-19 12:15:00,
2013-04-19 05:25:00,52.7,38.8,30.22,NW,319,0.0,0.0,59,0.00,,,0.00,Wunderground v.1.15,2013-04-19 12:25:00,
2013-04-19 05:30:00,52.7,39.2,30.22,NW,319,0.0,0.0,60,0.00,,,0.00,Wunderground v.1.15,2013-04-19 12:30:00,
2013-04-19 05:35:00,52.5,39.4,30.22,NW,319,0.0,0.0,61,0.00,,,0.00,Wunderground v.1.15,2013-04-19 12:35:00,
2013-04-19 05:40:00,52.3,39.2,30.21,NW,319,0.0,0.0,61,0.00,,,0.00,Wunderground v.1.15,2013-04-19 12:40:00,
2013-04-19 05:50:00,52.6,39.1,30.21,NW,319,0.0,0.0,60,0.00,,,0.00,Wunderground v.1.15,2013-04-19 12:50:00,
2013-04-19 05:55:00,52.6,39.1,30.22,NW,319,0.0,0.0,60,0.00,,,0.00,Wunderground v.1.15,2013-04-19 12:55:00,
2013-04-19 06:00:00,52.6,39.1,30.22,NW,319,0.0,0.0,60,0.00,,,0.00,Wunderground v.1.15,2013-04-19 13:00:00,
2013-04-19 06:05:00,52.6,39.5,30.22,NW,319,0.0,0.0,61,0.00,,,0.00,Wunderground v.1.15,2013-04-19 13:05:00,
2013-04-19 06:15:00,52.4,39.3,30.22,SE,134,0.0,0.0,61,0.00,,,0.00,Wunderground v.1.15,2013-04-19 13:15:00,
2013-04-19 06:20:00,52.3,39.7,30.22,SE,134,0.0,0.0,62,0.00,,,0.00,Wunderground v.1.15,2013-04-19 13:20:00,
2013-04-19 06:25:00,52.1,39.5,30.22,SE,134,0.0,0.0,62,0.00,,,0.00,Wunderground v.1.15,2013-04-19 13:25:00,
2013-04-19 06:35:00,51.9,39.7,30.23,SE,134,0.0,0.0,63,0.00,,,0.00,Wunderground v.1.15,2013-04-19 13:35:00,
2013-04-19 06:40:00,51.9,39.7,30.23,SE,134,0.0,0.0,63,0.00,,,0.00,Wunderground v.1.15,2013-04-19 13:40:00,
2013-04-19 06:45:00,52.0,39.8,30.23,SE,134,0.0,0.0,63,0.00,,,0.00,Wunderground v.1.15,2013-04-19 13:45:00,
2013-04-19 06:50:00,52.1,39.9,30.23,SE,134,0.0,0.0,63,0.00,,,0.00,Wunderground v.1.15,2013-04-19 13:50:00,
2013-04-19 07:00:00,52.0,39.8,30.23,SE,134,0.0,0.0,63,0.00,,,0.00,Wunderground v.1.15,2013-04-19 14:00:00,
2013-04-19 07:05:00,52.0,40.2,30.23,SE,134,0.0,0.0,64,0.00,,,0.00,Wunderground v.1.15,2013-04-19 14:05:00,
2013-04-19 07:10:00,52.3,40.9,30.23,SE,134,0.0,0.0,65,0.00,,,0.00,Wunderground v.1.15,2013-04-19 14:10:00,
2013-04-19 07:15:00,52.7,40.9,30.23,SE,134,0.0,0.0,64,0.00,,,0.00,Wunderground v.1.15,2013-04-19 14:15:00,
2013-04-19 07:25:00,54.1,40.9,30.23,SE,134,0.0,0.0,61,0.00,,,0.00,Wunderground v.1.15,2013-04-19 14:25:00,
2013-04-19 07:30:00,54.5,40.9,30.23,SE,134,0.0,0.0,60,0.00,,,0.00,Wunderground v.1.15,2013-04-19 14:30:00,
2013-04-19 07:40:00,54.6,41.0,30.23,SE,134,0.0,0.0,60,0.00,,,0.00,Wunderground v.1.15,2013-04-19 14:40:00,
2013-04-19 07:45:00,55.0,41.8,30.23,SE,134,0.0,0.0,61,0.00,,,0.00,Wunderground v.1.15,2013-04-19 14:45:00,
2013-04-19 07:50:00,55.3,41.6,30.23,SE,134,0.0,0.0,60,0.00,,,0.00,Wunderground v.1.15,2013-04-19 14:50:00,
2013-04-19 07:55:00,55.6,42.8,30.23,SE,134,0.0,0.0,62,0.00,,,0.00,Wunderground v.1.15,2013-04-19 14:55:00,
2013-04-19 08:00:00,56.0,43.6,30.23,SE,134,0.0,0.0,63,0.00,,,0.00,Wunderground v.1.15,2013-04-19 15:00:00,
2013-04-19 08:05:00,56.2,43.8,30.24,SE,134,0.0,0.0,63,0.00,,,0.00,Wunderground v.1.15,2013-04-19 15:05:00,
2013-04-19 08:10:00,56.6,44.1,30.24,SE,134,0.0,0.0,63,0.00,,,0.00,Wunderground v.1.15,2013-04-19 15:10:00,
2013-04-19 08:20:00,57.4,44.5,30.24,SE,134,0.0,0.0,62,0.00,,,0.00,Wunderground v.1.15,2013-04-19 15:20:00,
2013-04-19 08:25:00,57.9,43.7,30.24,SE,134,0.0,0.0,59,0.00,,,0.00,Wunderground v.1.15,2013-04-19 15:25:00,
2013-04-19 08:30:00,58.5,44.7,30.24,SE,134,0.0,0.0,60,0.00,,,0.00,Wunderground v.1.15,2013-04-19 15:30:00,
2013-04-19 08:35:00,59.0,43.8,30.24,ESE,114,0.0,1.0,57,0.00,,,0.00,Wunderground v.1.15,2013-04-19 15:35:00,
2013-04-19 08:40:00,59.4,43.7,30.24,ESE,114,0.0,0.0,56,0.00,,,0.00,Wunderground v.1.15,2013-04-19 15:40:00,
2013-04-19 08:45:00,59.7,43.5,30.24,ESE,112,0.0,0.0,55,0.00,,,0.00,Wunderground v.1.15,2013-04-19 15:45:00,
2013-04-19 08:50:00,60.0,43.8,30.24,ESE,113,0.0,0.0,55,0.00,,,0.00,Wunderground v.1.15,2013-04-19 15:50:00,
2013-04-19 08:55:00,60.4,43.7,30.24,ESE,113,0.0,0.0,54,0.00,,,0.00,Wunderground v.1.15,2013-04-19 15:55:00,
2013-04-19 09:05:00,61.6,44.3,30.24,ESE,113,0.0,0.0,53,0.00,,,0.00,Wunderground v.1.15,2013-04-19 16:05:00,
2013-04-19 09:10:00,62.3,45.4,30.24,ESE,113,0.0,0.0,54,0.00,,,0.00,Wunderground v.1.15,2013-04-19 16:10:00,
2013-04-19 09:15:00,63.2,46.3,30.24,ESE,113,0.0,0.0,54,0.00,,,0.00,Wunderground v.1.15,2013-04-19 16:15:00,
2013-04-19 09:25:00,64.6,47.1,30.24,ESE,105,0.0,0.0,53,0.00,,,0.00,Wunderground v.1.15,2013-04-19 16:25:00,
2013-04-19 09:35:00,65.5,46.4,30.24,ESE,105,0.0,1.0,50,0.00,,,0.00,Wunderground v.1.15,2013-04-19 16:35:00,
2013-04-19 09:40:00,65.5,46.9,30.23,ESE,105,0.0,0.0,51,0.00,,,0.00,Wunderground v.1.15,2013-04-19 16:40:00,
2013-04-19 09:45:00,65.6,47.0,30.24,ESE,105,0.0,0.0,51,0.00,,,0.00,Wunderground v.1.15,2013-04-19 16:45:00,
2013-04-19 09:50:00,65.8,47.2,30.24,ESE,105,0.0,0.0,51,0.00,,,0.00,Wunderground v.1.15,2013-04-19 16:50:00,
2013-04-19 09:55:00,66.5,48.8,30.24,ESE,105,0.0,1.0,53,0.00,,,0.00,Wunderground v.1.15,2013-04-19 16:55:00,
2013-04-19 10:00:00,66.9,48.7,30.24,ESE,105,0.0,0.0,52,0.00,,,0.00,Wunderground v.1.15,2013-04-19 17:00:00,
2013-04-19 10:05:00,66.9,47.1,30.24,ESE,105,0.0,0.0,49,0.00,,,0.00,Wunderground v.1.15,2013-04-19 17:05:00,
2013-04-19 10:15:00,67.1,48.4,30.24,ESE,105,0.0,0.0,51,0.00,,,0.00,Wunderground v.1.15,2013-04-19 17:15:00,
2013-04-19 10:20:00,67.6,49.9,30.24,East,95,0.0,1.0,53,0.00,,,0.00,Wunderground v.1.15,2013-04-19 17:20:00,
2013-04-19 10:25:00,67.8,49.0,30.24,East,95,0.0,1.0,51,0.00,,,0.00,Wunderground v.1.15,2013-04-19 17:25:00,
2013-04-19 10:30:00,68.3,48.4,30.24,East,95,0.0,0.0,49,0.00,,,0.00,Wunderground v.1.15,2013-04-19 17:30:00,
2013-04-19 10:35:00,68.8,48.9,30.24,East,96,0.0,0.0,49,0.00,,,0.00,Wunderground v.1.15,2013-04-19 17:35:00,
2013-04-19 10:40:00,69.4,49.4,30.23,East,96,0.0,0.0,49,0.00,,,0.00,Wunderground v.1.15,2013-04-19 17:40:00,
2013-04-19 10:45:00,69.8,49.2,30.23,East,90,0.0,1.0,48,0.00,,,0.00,Wunderground v.1.15,2013-04-19 17:45:00,
2013-04-19 10:50:00,69.7,49.1,30.23,SE,137,1.0,1.0,48,0.00,,,0.00,Wunderground v.1.15,2013-04-19 17:50:00,
2013-04-19 10:55:00,69.9,49.9,30.23,SE,137,0.0,1.0,49,0.00,,,0.00,Wunderground v.1.15,2013-04-19 17:55:00,
2013-04-19 11:05:00,70.9,49.7,30.23,SE,132,1.0,2.0,47,0.00,,,0.00,Wunderground v.1.15,2013-04-19 18:05:00,
2013-04-19 11:10:00,71.2,50.5,30.23,SE,140,1.0,3.0,48,0.00,,,0.00,Wunderground v.1.15,2013-04-19 18:10:00,
2013-04-19 11:15:00,71.7,49.2,30.23,SE,134,1.0,3.0,45,0.00,,,0.00,Wunderground v.1.15,2013-04-19 18:15:00,
2013-04-19 11:20:00,71.7,49.2,30.23,SE,140,1.0,1.0,45,0.00,,,0.00,Wunderground v.1.15,2013-04-19 18:20:00,
2013-04-19 11:25:00,72.2,50.3,30.23,SE,139,1.0,1.0,46,0.00,,,0.00,Wunderground v.1.15,2013-04-19 18:25:00,
2013-04-19 11:30:00,72.1,49.6,30.23,East,100,1.0,1.0,45,0.00,,,0.00,Wunderground v.1.15,2013-04-19 18:30:00,
2013-04-19 11:35:00,72.5,49.3,30.23,SE,139,1.0,1.0,44,0.00,,,0.00,Wunderground v.1.15,2013-04-19 18:35:00,
2013-04-19 11:40:00,72.8,49.0,30.23,South,170,1.0,1.0,43,0.00,,,0.00,Wunderground v.1.15,2013-04-19 18:40:00,
2013-04-19 11:45:00,73.3,49.4,30.23,SE,145,1.0,2.0,43,0.00,,,0.00,Wunderground v.1.15,2013-04-19 18:45:00,
2013-04-19 11:55:00,73.3,50.1,30.22,SE,138,1.0,3.0,44,0.00,,,0.00,Wunderground v.1.15,2013-04-19 18:55:00,
2013-04-19 12:00:00,73.5,49.6,30.22,SE,125,1.0,1.0,43,0.00,,,0.00,Wunderground v.1.15,2013-04-19 19:00:00,
2013-04-19 12:05:00,73.9,50.6,30.22,SE,125,1.0,2.0,44,0.00,,,0.00,Wunderground v.1.15,2013-04-19 19:05:00,
2013-04-19 12:10:00,74.2,49.6,30.22,ESE,109,1.0,1.0,42,0.00,,,0.00,Wunderground v.1.15,2013-04-19 19:10:00,
2013-04-19 12:20:00,74.5,49.9,30.21,ESE,107,1.0,1.0,42,0.00,,,0.00,Wunderground v.1.15,2013-04-19 19:20:00,
2013-04-19 12:25:00,75.3,49.3,30.21,SE,138,1.0,1.0,40,0.00,,,0.00,Wunderground v.1.15,2013-04-19 19:25:00,
2013-04-19 12:35:00,75.7,48.3,30.21,ESE,118,1.0,2.0,38,0.00,,,0.00,Wunderground v.1.15,2013-04-19 19:35:00,
2013-04-19 12:40:00,75.8,49.8,30.20,ESE,119,1.0,1.0,40,0.00,,,0.00,Wunderground v.1.15,2013-04-19 19:40:00,
2013-04-19 12:45:00,76.0,49.9,30.20,SE,134,1.0,1.0,40,0.00,,,0.00,Wunderground v.1.15,2013-04-19 19:45:00,
2013-04-19 12:50:00,76.2,48.7,30.20,SE,134,1.0,1.0,38,0.00,,,0.00,Wunderground v.1.15,2013-04-19 19:50:00,
2013-04-19 12:55:00,76.5,49.0,30.20,NNW,334,0.0,2.0,38,0.00,,,0.00,Wunderground v.1.15,2013-04-19 19:55:00,
2013-04-19 13:00:00,77.2,50.3,30.20,West,259,1.0,2.0,39,0.00,,,0.00,Wunderground v.1.15,2013-04-19 20:00:00,
2013-04-19 13:10:00,77.9,53.6,30.19,NNW,331,1.0,4.0,43,0.00,,,0.00,Wunderground v.1.15,2013-04-19 20:10:00,
2013-04-19 13:15:00,77.0,51.5,30.19,WNW,302,2.0,4.0,41,0.00,,,0.00,Wunderground v.1.15,2013-04-19 20:15:00,
2013-04-19 13:20:00,77.4,53.8,30.19,WNW,299,1.0,2.0,44,0.00,,,0.00,Wunderground v.1.15,2013-04-19 20:20:00,
2013-04-19 13:25:00,78.2,53.9,30.18,NNW,344,1.0,4.0,43,0.00,,,0.00,Wunderground v.1.15,2013-04-19 20:25:00,
2013-04-19 13:35:00,77.8,54.8,30.18,North,355,2.0,5.0,45,0.00,,,0.00,Wunderground v.1.15,2013-04-19 20:35:00,
2013-04-19 13:40:00,77.1,54.1,30.18,SSW,196,2.0,2.0,45,0.00,,,0.00,Wunderground v.1.15,2013-04-19 20:40:00,
2013-04-19 13:45:00,76.6,53.7,30.18,SW,227,3.0,3.0,45,0.00,,,0.00,Wunderground v.1.15,2013-04-19 20:45:00,
2013-04-19 13:50:00,76.6,53.1,30.18,NNW,347,3.0,6.0,44,0.00,,,0.00,Wunderground v.1.15,2013-04-19 20:50:00,
2013-04-19 14:00:00,77.0,54.0,30.17,WNW,302,2.0,2.0,45,0.00,,,0.00,Wunderground v.1.15,2013-04-19 21:00:00,
2013-04-19 14:05:00,77.1,53.5,30.17,North,5,2.0,5.0,44,0.00,,,0.00,Wunderground v.1.15,2013-04-19 21:05:00,
2013-04-19 14:10:00,77.1,53.5,30.17,NW,314,2.0,2.0,44,0.00,,,0.00,Wunderground v.1.15,2013-04-19 21:10:00,
2013-04-19 14:15:00,77.1,53.5,30.17,NW,321,3.0,3.0,44,0.00,,,0.00,Wunderground v.1.15,2013-04-19 21:15:00,
2013-04-19 14:20:00,77.4,53.1,30.17,WSW,246,2.0,2.0,43,0.00,,,0.00,Wunderground v.1.15,2013-04-19 21:20:00,
2013-04-19 14:25:00,77.7,52.8,30.17,WSW,251,2.0,2.0,42,0.00,,,0.00,Wunderground v.1.15,2013-04-19 21:25:00,
2013-04-19 14:35:00,77.4,53.1,30.16,WNW,288,3.0,3.0,43,0.00,,,0.00,Wunderground v.1.15,2013-04-19 21:35:00,
2013-04-19 14:40:00,76.9,52.1,30.16,NW,326,3.0,3.0,42,0.00,,,0.00,Wunderground v.1.15,2013-04-19 21:40:00,
2013-04-19 14:45:00,76.2,52.1,30.16,WSW,254,3.0,4.0,43,0.00,,,0.00,Wunderground v.1.15,2013-04-19 21:45:00,
2013-04-19 14:50:00,75.6,50.9,30.16,NW,319,4.0,4.0,42,0.00,,,0.00,Wunderground v.1.15,2013-04-19 21:50:00,
2013-04-19 14:55:00,75.4,51.3,30.15,NW,304,3.0,4.0,43,0.00,,,0.00,Wunderground v.1.15,2013-04-19 21:55:00,
2013-04-19 15:00:00,75.7,51.6,30.15,WNW,294,3.0,4.0,43,0.00,,,0.00,Wunderground v.1.15,2013-04-19 22:00:00,
2013-04-19 15:10:00,76.7,51.9,30.15,WNW,298,2.0,2.0,42,0.00,,,0.00,Wunderground v.1.15,2013-04-19 22:10:00,
2013-04-19 15:15:00,76.8,52.0,30.14,WNW,292,2.0,2.0,42,0.00,,,0.00,Wunderground v.1.15,2013-04-19 22:15:00,
2013-04-19 15:20:00,76.5,51.0,30.14,WNW,293,2.0,2.0,41,0.00,,,0.00,Wunderground v.1.15,2013-04-19 22:20:00,
2013-04-19 15:25:00,76.9,51.4,30.14,NW,304,3.0,3.0,41,0.00,,,0.00,Wunderground v.1.15,2013-04-19 22:25:00,
2013-04-19 15:30:00,78.0,51.0,30.14,West,259,2.0,2.0,39,0.00,,,0.00,Wunderground v.1.15,2013-04-19 22:30:00,
2013-04-19 15:35:00,79.3,48.5,30.14,WSW,256,1.0,2.0,34,0.00,,,0.00,Wunderground v.1.15,2013-04-19 22:35:00,
2013-04-19 15:40:00,79.6,49.5,30.14,WSW,253,1.0,1.0,35,0.00,,,0.00,Wunderground v.1.15,2013-04-19 22:40:00,
2013-04-19 15:50:00,77.8,47.9,30.14,NW,315,3.0,3.0,35,0.00,,,0.00,Wunderground v.1.15,2013-04-19 22:50:00,
2013-04-19 15:55:00,77.1,48.1,30.14,West,263,3.0,3.0,36,0.00,,,0.00,Wunderground v.1.15,2013-04-19 22:55:00,
2013-04-19 16:00:00,76.2,48.0,30.13,WSW,252,3.0,4.0,37,0.00,,,0.00,Wunderground v.1.15,2013-04-19 23:00:00,
2013-04-19 16:05:00,75.5,46.7,30.14,WSW,250,4.0,6.0,36,0.00,,,0.00,Wunderground v.1.15,2013-04-19 23:05:00,
2013-04-19 16:10:00,75.1,46.3,30.13,West,273,4.0,4.0,36,0.00,,,0.00,Wunderground v.1.15,2013-04-19 23:10:00,
2013-04-19 16:15:00,75.8,46.9,30.13,West,261,2.0,4.0,36,0.00,,,0.00,Wunderground v.1.15,2013-04-19 23:15:00,
2013-04-19 16:25:00,77.2,48.2,30.13,SE,137,1.0,1.0,36,0.00,,,0.00,Wunderground v.1.15,2013-04-19 23:25:00,
2013-04-19 16:30:00,77.6,47.0,30.13,NW,304,1.0,1.0,34,0.00,,,0.00,Wunderground v.1.15,2013-04-19 23:30:00,
2013-04-19 16:35:00,77.8,48.7,30.13,SSE,156,1.0,1.0,36,0.00,,,0.00,Wunderground v.1.15,2013-04-19 23:35:00,
2013-04-19 16:40:00,77.8,50.2,30.12,SSE,156,0.0,0.0,38,0.00,,,0.00,Wunderground v.1.15,2013-04-19 23:40:00,
2013-04-19 16:50:00,77.9,51.6,30.12,WNW,285,1.0,1.0,40,0.00,,,0.00,Wunderground v.1.15,2013-04-19 23:50:00,
2013-04-19 16:55:00,78.2,51.9,30.12,NNW,341,0.0,1.0,40,0.00,,,0.00,Wunderground v.1.15,2013-04-19 23:55:00,
2013-04-19 17:00:00,77.9,52.3,30.12,NW,319,1.0,2.0,41,0.00,,,0.00,Wunderground v.1.15,2013-04-20 00:00:00,
2013-04-19 17:05:00,77.5,51.9,30.12,WSW,253,1.0,2.0,41,0.00,,,0.00,Wunderground v.1.15,2013-04-20 00:05:00,
2013-04-19 17:15:00,77.1,52.2,30.11,NNW,347,1.0,3.0,42,0.00,,,0.00,Wunderground v.1.15,2013-04-20 00:15:00,
2013-04-19 17:20:00,77.1,50.9,30.11,WSW,250,0.0,0.0,40,0.00,,,0.00,Wunderground v.1.15,2013-04-20 00:20:00,
2013-04-19 17:25:00,76.5,50.4,30.11,WSW,252,0.0,0.0,40,0.00,,,0.00,Wunderground v.1.15,2013-04-20 00:25:00,
2013-04-19 17:35:00,76.0,49.2,30.11,NW,322,0.0,1.0,39,0.00,,,0.00,Wunderground v.1.15,2013-04-20 00:35:00,
2013-04-19 17:40:00,75.1,47.8,30.10,WNW,290,1.0,1.0,38,0.00,,,0.00,Wunderground v.1.15,2013-04-20 00:40:00,
2013-04-19 17:45:00,74.6,48.0,30.10,NW,325,2.0,2.0,39,0.00,,,0.00,Wunderground v.1.15,2013-04-20 00:45:00,
2013-04-19 17:50:00,74.3,47.7,30.10,NNW,332,1.0,3.0,39,0.00,,,0.00,Wunderground v.1.15,2013-04-20 00:50:00,
2013-04-19 17:55:00,74.0,47.5,30.10,WNW,299,1.0,3.0,39,0.00,,,0.00,Wunderground v.1.15,2013-04-20 00:55:00,
2013-04-19 18:00:00,73.6,47.1,30.10,SW,226,1.0,3.0,39,0.00,,,0.00,Wunderground v.1.15,2013-04-20 01:00:00,
2013-04-19 18:10:00,72.6,46.9,30.10,North,355,2.0,2.0,40,0.00,,,0.00,Wunderground v.1.15,2013-04-20 01:10:00,
2013-04-19 18:15:00,72.4,47.4,30.10,North,360,1.0,4.0,41,0.00,,,0.00,Wunderground v.1.15,2013-04-20 01:15:00,
2013-04-19 18:20:00,72.2,47.2,30.10,WSW,254,1.0,2.0,41,0.00,,,0.00,Wunderground v.1.15,2013-04-20 01:20:00,
2013-04-19 18:25:00,72.1,47.7,30.10,NW,311,1.0,2.0,42,0.00,,,0.00,Wunderground v.1.15,2013-04-20 01:25:00,
2013-04-19 18:35:00,71.8,47.5,30.09,NNW,333,0.0,3.0,42,0.00,,,0.00,Wunderground v.1.15,2013-04-20 01:35:00,
2013-04-19 18:40:00,71.5,47.2,30.09,WSW,240,1.0,1.0,42,0.00,,,0.00,Wunderground v.1.15,2013-04-20 01:40:00,
2013-04-19 18:45:00,71.3,47.0,30.09,ESE,109,0.0,1.0,42,0.00,,,0.00,Wunderground v.1.15,2013-04-20 01:45:00,
2013-04-19 18:50:00,71.0,47.4,30.09,ESE,120,0.0,0.0,43,0.00,,,0.00,Wunderground v.1.15,2013-04-20 01:50:00,
2013-04-19 19:00:00,70.5,46.9,30.09,WNW,301,0.0,0.0,43,0.00,,,0.00,Wunderground v.1.15,2013-04-20 02:00:00,
2013-04-19 19:05:00,70.1,47.2,30.09,SE,130,0.0,0.0,44,0.00,,,0.00,Wunderground v.1.15,2013-04-20 02:05:00,
2013-04-19 19:10:00,69.8,47.5,30.09,SSE,164,0.0,0.0,45,0.00,,,0.00,Wunderground v.1.15,2013-04-20 02:10:00,
2013-04-19 19:20:00,69.2,46.9,30.09,WNW,294,0.0,0.0,45,0.00,,,0.00,Wunderground v.1.15,2013-04-20 02:20:00,
2013-04-19 19:25:00,68.9,47.3,30.08,NW,312,0.0,0.0,46,0.00,,,0.00,Wunderground v.1.15,2013-04-20 02:25:00,
2013-04-19 19:30:00,68.7,47.1,30.08,NW,313,0.0,0.0,46,0.00,,,0.00,Wunderground v.1.15,2013-04-20 02:30:00,
2013-04-19 19:35:00,68.5,47.5,30.08,WSW,243,0.0,0.0,47,0.00,,,0.00,Wunderground v.1.15,2013-04-20 02:35:00,
2013-04-19 19:45:00,68.0,47.0,30.08,NW,323,0.0,0.0,47,0.00,,,0.00,Wunderground v.1.15,2013-04-20 02:45:00,
2013-04-19 19:50:00,67.5,47.1,30.08,NW,323,0.0,0.0,48,0.00,,,0.00,Wunderground v.1.15,2013-04-20 02:50:00,
2013-04-19 19:55:00,67.0,46.7,30.08,NW,323,0.0,0.0,48,0.00,,,0.00,Wunderground v.1.15,2013-04-20 02:55:00,
2013-04-19 20:05:00,66.1,46.9,30.08,NW,323,0.0,0.0,50,0.00,,,0.00,Wunderground v.1.15,2013-04-20 03:05:00,
2013-04-19 20:10:00,65.6,47.0,30.08,NW,323,0.0,0.0,51,0.00,,,0.00,Wunderground v.1.15,2013-04-20 03:10:00,
2013-04-19 20:15:00,65.3,47.2,30.08,NW,322,0.0,1.0,52,0.00,,,0.00,Wunderground v.1.15,2013-04-20 03:15:00,
2013-04-19 20:20:00,65.2,47.1,30.08,NW,309,0.0,0.0,52,0.00,,,0.00,Wunderground v.1.15,2013-04-20 03:20:00,
2013-04-19 20:30:00,64.8,47.3,30.08,West,275,0.0,0.0,53,0.00,,,0.00,Wunderground v.1.15,2013-04-20 03:30:00,
2013-04-19 20:35:00,64.6,47.1,30.08,NNW,338,0.0,0.0,53,0.00,,,0.00,Wunderground v.1.15,2013-04-20 03:35:00,
2013-04-19 20:45:00,64.5,47.0,30.08,NNW,328,0.0,0.0,53,0.00,,,0.00,Wunderground v.1.15,2013-04-20 03:45:00,
2013-04-19 20:55:00,64.3,47.3,30.08,NNW,328,0.0,0.0,54,0.00,,,0.00,Wunderground v.1.15,2013-04-20 03:55:00,
2013-04-19 21:00:00,64.0,47.0,30.08,NNW,338,0.0,0.0,54,0.00,,,0.00,Wunderground v.1.15,2013-04-20 04:00:00,
2013-04-19 21:05:00,63.8,46.8,30.09,East,91,0.0,0.0,54,0.00,,,0.00,Wunderground v.1.15,2013-04-20 04:05:00,
2013-04-19 21:10:00,63.8,47.3,30.09,NE,46,0.0,1.0,55,0.00,,,0.00,Wunderground v.1.15,2013-04-20 04:10:00,
2013-04-19 21:15:00,64.0,47.0,30.09,NNW,342,1.0,1.0,54,0.00,,,0.00,Wunderground v.1.15,2013-04-20 04:15:00,
2013-04-19 21:20:00,64.1,47.1,30.09,NW,320,1.0,1.0,54,0.00,,,0.00,Wunderground v.1.15,2013-04-20 04:20:00,
2013-04-19 21:25:00,64.2,47.2,30.09,NW,314,1.0,1.0,54,0.00,,,0.00,Wunderground v.1.15,2013-04-20 04:25:00,
2013-04-19 21:30:00,64.1,47.1,30.09,WNW,302,1.0,1.0,54,0.00,,,0.00,Wunderground v.1.15,2013-04-20 04:30:00,
2013-04-19 21:40:00,64.0,47.0,30.09,WNW,296,0.0,0.0,54,0.00,,,0.00,Wunderground v.1.15,2013-04-20 04:40:00,
2013-04-19 21:45:00,63.8,46.8,30.09,NW,326,0.0,0.0,54,0.00,,,0.00,Wunderground v.1.15,2013-04-20 04:45:00,
2013-04-19 21:50:00,63.6,47.1,30.09,NNW,347,0.0,1.0,55,0.00,,,0.00,Wunderground v.1.15,2013-04-20 04:50:00,
2013-04-19 22:00:00,63.4,46.9,30.09,WNW,300,1.0,1.0,55,0.00,,,0.00,Wunderground v.1.15,2013-04-20 05:00:00,
2013-04-19 22:05:00,63.5,47.0,30.09,WNW,298,2.0,5.0,55,0.00,,,0.00,Wunderground v.1.15,2013-04-20 05:05:00,
2013-04-19 22:10:00,63.5,47.0,30.09,West,264,2.0,2.0,55,0.00,,,0.00,Wunderground v.1.15,2013-04-20 05:10:00,
2013-04-19 22:20:00,63.6,46.6,30.09,NW,304,3.0,3.0,54,0.00,,,0.00,Wunderground v.1.15,2013-04-20 05:20:00,
2013-04-19 22:25:00,63.5,46.6,30.09,NW,315,2.0,3.0,54,0.00,,,0.00,Wunderground v.1.15,2013-04-20 05:25:00,
2013-04-19 22:35:00,63.1,46.7,30.09,NW,311,2.0,3.0,55,0.00,,,0.00,Wunderground v.1.15,2013-04-20 05:35:00,
2013-04-19 22:40:00,62.9,46.5,30.09,North,360,2.0,2.0,55,0.00,,,0.00,Wunderground v.1.15,2013-04-20 05:40:00,
2013-04-19 22:45:00,62.7,46.3,30.09,WNW,284,2.0,2.0,55,0.00,,,0.00,Wunderground v.1.15,2013-04-20 05:45:00,
2013-04-19 22:50:00,62.6,46.7,30.09,NW,311,1.0,1.0,56,0.00,,,0.00,Wunderground v.1.15,2013-04-20 05:50:00,
2013-04-19 22:55:00,62.3,46.4,30.09,NW,304,1.0,2.0,56,0.00,,,0.00,Wunderground v.1.15,2013-04-20 05:55:00,
2013-04-19 23:05:00,62.0,46.6,30.09,NW,323,1.0,3.0,57,0.00,,,0.00,Wunderground v.1.15,2013-04-20 06:05:00,
2013-04-19 23:10:00,61.7,46.3,30.09,WSW,250,1.0,4.0,57,0.00,,,0.00,Wunderground v.1.15,2013-04-20 06:10:00,
2013-04-19 23:15:00,61.6,46.7,30.09,WNW,290,2.0,4.0,58,0.00,,,0.00,Wunderground v.1.15,2013-04-20 06:15:00,
2013-04-19 23:20:00,61.5,46.6,30.09,WNW,301,2.0,3.0,58,0.00,,,0.00,Wunderground v.1.15,2013-04-20 06:20:00,
2013-04-19 23:30:00,61.2,46.3,30.08,West,273,3.0,3.0,58,0.00,,,0.00,Wunderground v.1.15,2013-04-20 06:30:00,
2013-04-19 23:35:00,61.0,46.6,30.08,West,277,3.0,4.0,59,0.00,,,0.00,Wunderground v.1.15,2013-04-20 06:35:00,
2013-04-19 23:40:00,60.8,46.4,30.09,WNW,287,2.0,4.0,59,0.00,,,0.00,Wunderground v.1.15,2013-04-20 06:40:00,
2013-04-19 23:50:00,60.3,46.4,30.09,West,278,2.0,4.0,60,0.00,,,0.00,Wunderground v.1.15,2013-04-20 06:50:00,
2013-04-19 23:55:00,60.1,46.6,30.09,West,259,3.0,6.0,61,0.00,,,0.00,Wunderground v.1.15,2013-04-20 06:55:00,